createdAt,value
2019-06-27T00:00:14.407Z,0.00
2019-06-27T00:01:14.445Z,0.00
2019-06-27T00:02:14.374Z,0.00
2019-06-27T00:03:14.367Z,0.00
2019-06-27T00:04:14.357Z,0.00
2019-06-27T00:05:14.346Z,0.00
2019-06-27T00:06:14.358Z,0.00
2019-06-27T00:07:14.314Z,0.00
2019-06-27T00:08:14.325Z,0.00
2019-06-27T00:09:14.299Z,0.00
2019-06-27T00:10:14.294Z,0.00
2019-06-27T00:11:14.295Z,0.00
2019-06-27T00:12:14.255Z,0.00
2019-06-27T00:13:14.259Z,0.00
2019-06-27T00:14:14.235Z,0.00
2019-06-27T00:15:14.226Z,0.00
2019-06-27T00:16:14.216Z,0.00
2019-06-27T00:17:14.216Z,0.00
2019-06-27T00:18:14.209Z,0.00
2019-06-27T00:19:14.187Z,0.00
2019-06-27T00:20:14.179Z,0.00
2019-06-27T00:21:14.167Z,0.00
2019-06-27T00:22:14.166Z,0.00
2019-06-27T00:23:14.152Z,0.00
2019-06-27T00:24:14.140Z,0.00
2019-06-27T00:25:14.117Z,0.00
2019-06-27T00:26:14.108Z,0.00
2019-06-27T00:27:14.100Z,0.00
2019-06-27T00:28:14.097Z,0.00
2019-06-27T00:29:14.076Z,0.00
2019-06-27T00:30:14.071Z,0.00
2019-06-27T00:31:14.072Z,0.00
2019-06-27T00:32:14.055Z,0.00
2019-06-27T00:33:14.048Z,0.00
2019-06-27T00:34:14.018Z,0.00
2019-06-27T00:35:14.008Z,0.00
2019-06-27T00:36:13.997Z,0.00
2019-06-27T00:37:13.988Z,0.00
2019-06-27T00:38:13.979Z,0.00
2019-06-27T00:39:14.002Z,0.00
2019-06-27T00:40:13.958Z,0.00
2019-06-27T00:41:13.959Z,0.00
2019-06-27T00:42:13.939Z,0.00
2019-06-27T00:43:13.919Z,0.00
2019-06-27T00:44:13.937Z,0.00
2019-06-27T00:45:13.912Z,0.00
2019-06-27T00:46:13.887Z,0.00
2019-06-27T00:47:13.888Z,0.00
2019-06-27T00:48:13.882Z,0.00
2019-06-27T00:49:13.860Z,0.00
2019-06-27T00:50:13.860Z,0.00
2019-06-27T00:51:13.854Z,0.00
2019-06-27T00:52:13.832Z,0.00
2019-06-27T00:53:13.811Z,0.00
2019-06-27T00:54:13.813Z,0.00
2019-06-27T00:55:13.800Z,0.00
2019-06-27T00:56:13.804Z,0.00
2019-06-27T00:57:14.760Z,0.00
2019-06-27T00:58:13.764Z,0.00
2019-06-27T00:59:13.774Z,0.00
2019-06-27T01:00:13.741Z,0.00
2019-06-27T01:01:13.722Z,0.00
2019-06-27T01:02:13.719Z,0.00
2019-06-27T01:03:13.714Z,0.00
2019-06-27T01:04:13.704Z,0.00
2019-06-27T01:05:13.705Z,0.00
2019-06-27T01:06:13.683Z,0.00
2019-06-27T01:07:13.663Z,0.00
2019-06-27T01:08:13.660Z,0.00
2019-06-27T01:09:13.654Z,0.00
2019-06-27T01:10:13.632Z,0.00
2019-06-27T01:11:13.635Z,0.00
2019-06-27T01:12:13.625Z,0.00
2019-06-27T01:13:13.606Z,0.00
2019-06-27T01:14:13.601Z,0.00
2019-06-27T01:15:13.596Z,0.00
2019-06-27T01:16:13.584Z,0.00
2019-06-27T01:17:13.556Z,0.00
2019-06-27T01:18:13.556Z,0.00
2019-06-27T01:19:13.523Z,0.00
2019-06-27T01:20:13.524Z,0.00
2019-06-27T01:21:13.503Z,0.00
2019-06-27T01:22:13.495Z,0.00
2019-06-27T01:23:13.507Z,0.00
2019-06-27T01:24:13.487Z,0.00
2019-06-27T01:25:13.477Z,0.00
2019-06-27T01:26:13.454Z,0.00
2019-06-27T01:27:28.879Z,0.00
2019-06-27T01:28:14.446Z,0.00
2019-06-27T01:29:13.415Z,0.00
2019-06-27T01:30:13.405Z,0.00
2019-06-27T01:31:13.406Z,0.00
2019-06-27T01:32:13.395Z,0.00
2019-06-27T01:33:13.388Z,0.00
2019-06-27T01:34:13.376Z,0.00
2019-06-27T01:35:13.354Z,0.00
2019-06-27T01:36:13.369Z,0.00
2019-06-27T01:37:13.336Z,0.00
2019-06-27T01:38:13.316Z,0.00
2019-06-27T01:39:13.315Z,0.00
2019-06-27T01:40:13.309Z,0.00
2019-06-27T01:41:13.297Z,0.00
2019-06-27T01:42:13.299Z,0.00
2019-06-27T01:43:13.338Z,0.00
2019-06-27T01:44:13.269Z,0.00
2019-06-27T01:45:13.890Z,0.00
2019-06-27T01:46:13.238Z,0.00
2019-06-27T01:47:13.251Z,0.00
2019-06-27T01:48:13.220Z,0.00
2019-06-27T01:49:13.207Z,0.00
2019-06-27T01:50:13.195Z,0.00
2019-06-27T01:51:13.197Z,0.00
2019-06-27T01:52:13.177Z,0.00
2019-06-27T01:53:13.157Z,0.00
2019-06-27T01:54:13.146Z,0.00
2019-06-27T01:55:13.129Z,0.00
2019-06-27T01:56:13.138Z,0.00
2019-06-27T01:57:13.130Z,0.00
2019-06-27T01:58:13.117Z,0.00
2019-06-27T01:59:13.116Z,0.00
2019-06-27T02:00:13.092Z,0.00
2019-06-27T02:01:13.088Z,0.00
2019-06-27T02:02:13.068Z,0.00
2019-06-27T02:03:13.088Z,0.00
2019-06-27T02:04:13.039Z,0.00
2019-06-27T02:05:13.028Z,0.00
2019-06-27T02:06:13.020Z,0.00
2019-06-27T02:07:13.010Z,0.00
2019-06-27T02:08:13.012Z,0.00
2019-06-27T02:09:13.012Z,0.00
2019-06-27T02:10:12.969Z,0.00
2019-06-27T02:11:12.970Z,0.00
2019-06-27T02:12:12.969Z,0.00
2019-06-27T02:13:12.949Z,0.00
2019-06-27T02:14:12.942Z,0.00
2019-06-27T02:15:12.929Z,0.00
2019-06-27T02:16:12.910Z,0.00
2019-06-27T02:17:12.924Z,0.00
2019-06-27T02:18:12.881Z,0.00
2019-06-27T02:19:12.870Z,0.00
2019-06-27T02:20:12.867Z,0.00
2019-06-27T02:21:12.850Z,0.00
2019-06-27T02:22:12.873Z,0.00
2019-06-27T02:23:15.871Z,4.00
2019-06-27T02:24:12.850Z,4.00
2019-06-27T02:25:12.811Z,0.00
2019-06-27T02:26:12.801Z,0.00
2019-06-27T02:27:12.792Z,4.00
2019-06-27T02:28:12.784Z,4.00
2019-06-27T02:29:12.791Z,4.00
2019-06-27T02:30:12.761Z,4.00
2019-06-27T02:31:12.757Z,4.00
2019-06-27T02:32:12.733Z,8.00
2019-06-27T02:33:12.723Z,8.00
2019-06-27T02:34:12.703Z,8.00
2019-06-27T02:35:12.712Z,8.00
2019-06-27T02:36:12.685Z,8.00
2019-06-27T02:37:12.683Z,12.00
2019-06-27T02:38:12.665Z,16.00
2019-06-27T02:39:12.663Z,16.00
2019-06-27T02:40:19.709Z,20.00
2019-06-27T02:41:12.637Z,16.00
2019-06-27T02:42:12.629Z,24.00
2019-06-27T02:43:12.618Z,24.00
2019-06-27T02:44:12.607Z,28.00
2019-06-27T02:45:12.607Z,32.00
2019-06-27T02:46:12.592Z,32.00
2019-06-27T02:47:12.577Z,40.00
2019-06-27T02:48:12.595Z,48.00
2019-06-27T02:49:12.559Z,56.00
2019-06-27T02:50:12.549Z,56.00
2019-06-27T02:51:12.543Z,60.00
2019-06-27T02:52:12.539Z,68.00
2019-06-27T02:53:12.510Z,80.00
2019-06-27T02:54:12.510Z,84.00
2019-06-27T02:55:12.492Z,96.00
2019-06-27T02:56:12.489Z,104.00
2019-06-27T02:57:12.473Z,112.00
2019-06-27T02:58:28.586Z,124.00
2019-06-27T02:59:13.463Z,136.00
2019-06-27T03:00:12.429Z,148.00
2019-06-27T03:01:12.420Z,164.00
2019-06-27T03:02:12.413Z,180.00
2019-06-27T03:03:12.403Z,188.00
2019-06-27T03:04:12.391Z,212.00
2019-06-27T03:05:12.371Z,224.00
2019-06-27T03:06:12.385Z,244.00
2019-06-27T03:07:12.366Z,264.00
2019-06-27T03:08:12.347Z,280.00
2019-06-27T03:09:12.352Z,300.00
2019-06-27T03:10:12.322Z,316.00
2019-06-27T03:11:12.308Z,344.00
2019-06-27T03:12:12.327Z,380.00
2019-06-27T03:13:12.292Z,404.00
2019-06-27T03:14:12.282Z,432.00
2019-06-27T03:15:12.282Z,448.00
2019-06-27T03:16:12.252Z,476.00
2019-06-27T03:17:12.281Z,516.00
2019-06-27T03:18:12.242Z,548.00
2019-06-27T03:19:12.234Z,560.00
2019-06-27T03:20:12.222Z,584.00
2019-06-27T03:21:12.216Z,624.00
2019-06-27T03:22:12.194Z,656.00
2019-06-27T03:23:12.195Z,680.00
2019-06-27T03:24:12.172Z,716.00
2019-06-27T03:25:12.163Z,752.00
2019-06-27T03:26:12.144Z,784.00
2019-06-27T03:27:12.133Z,820.00
2019-06-27T03:28:12.142Z,840.00
2019-06-27T03:29:12.113Z,852.00
2019-06-27T03:30:12.371Z,872.00
2019-06-27T03:31:12.107Z,908.00
2019-06-27T03:32:12.109Z,924.00
2019-06-27T03:33:12.089Z,928.00
2019-06-27T03:34:12.054Z,972.00
2019-06-27T03:35:12.223Z,1068.00
2019-06-27T03:36:12.044Z,1104.00
2019-06-27T03:37:12.038Z,1136.00
2019-06-27T03:38:12.037Z,1168.00
2019-06-27T03:39:12.005Z,1196.00
2019-06-27T03:40:12.008Z,1232.00
2019-06-27T03:41:11.991Z,1260.00
2019-06-27T03:42:11.983Z,1288.00
2019-06-27T03:43:11.959Z,1308.00
2019-06-27T03:44:11.955Z,1352.00
2019-06-27T03:45:15.790Z,1384.00
2019-06-27T03:46:11.926Z,1448.00
2019-06-27T03:47:11.928Z,1492.00
2019-06-27T03:48:11.908Z,1540.00
2019-06-27T03:49:11.895Z,1592.00
2019-06-27T03:50:11.894Z,1624.00
2019-06-27T03:51:11.876Z,1700.00
2019-06-27T03:52:11.872Z,1824.00
2019-06-27T03:53:11.885Z,1980.00
2019-06-27T03:54:11.859Z,2072.00
2019-06-27T03:55:11.837Z,2088.00
2019-06-27T03:56:11.935Z,2244.00
2019-06-27T03:57:11.818Z,2316.00
2019-06-27T03:58:11.807Z,2404.00
2019-06-27T03:59:13.724Z,2576.00
2019-06-27T04:00:11.807Z,2496.00
2019-06-27T04:01:11.777Z,2576.00
2019-06-27T04:02:11.747Z,2820.00
2019-06-27T04:03:11.745Z,2896.00
2019-06-27T04:04:11.742Z,2920.00
2019-06-27T04:05:11.729Z,2980.00
2019-06-27T04:06:11.722Z,3152.00
2019-06-27T04:07:11.720Z,3380.00
2019-06-27T04:08:11.710Z,3524.00
2019-06-27T04:09:11.680Z,3560.00
2019-06-27T04:10:16.739Z,3748.00
2019-06-27T04:11:12.671Z,3864.00
2019-06-27T04:12:11.659Z,3716.00
2019-06-27T04:13:11.643Z,3648.00
2019-06-27T04:14:11.619Z,3660.00
2019-06-27T04:15:11.608Z,3772.00
2019-06-27T04:16:11.612Z,3940.00
2019-06-27T04:17:11.618Z,3944.00
2019-06-27T04:18:11.579Z,3968.00
2019-06-27T04:19:11.584Z,3892.00
2019-06-27T04:20:11.559Z,3912.00
2019-06-27T04:21:11.557Z,3960.00
2019-06-27T04:22:11.541Z,3864.00
2019-06-27T04:23:11.528Z,3968.00
2019-06-27T04:24:11.539Z,4048.00
2019-06-27T04:25:11.511Z,4088.00
2019-06-27T04:26:11.489Z,4120.00
2019-06-27T04:27:11.492Z,4000.00
2019-06-27T04:28:11.480Z,4276.00
2019-06-27T04:29:31.517Z,4520.00
2019-06-27T04:30:12.449Z,4592.00
2019-06-27T04:31:11.430Z,4652.00
2019-06-27T04:32:11.430Z,4848.00
2019-06-27T04:33:11.444Z,4932.00
2019-06-27T04:34:11.401Z,5124.00
2019-06-27T04:35:11.412Z,5404.00
2019-06-27T04:36:11.405Z,5532.00
2019-06-27T04:37:11.371Z,5500.00
2019-06-27T04:38:11.384Z,5516.00
2019-06-27T04:39:11.364Z,5316.00
2019-06-27T04:40:11.372Z,5584.00
2019-06-27T04:41:11.340Z,5760.00
2019-06-27T04:42:11.313Z,5764.00
2019-06-27T04:43:11.301Z,5912.00
2019-06-27T04:44:11.291Z,6220.00
2019-06-27T04:45:11.301Z,6676.00
2019-06-27T04:46:11.270Z,6696.00
2019-06-27T04:47:11.264Z,6492.00
2019-06-27T04:48:11.266Z,6316.00
2019-06-27T04:49:13.455Z,6580.00
2019-06-27T04:50:11.252Z,6856.00
2019-06-27T04:51:11.211Z,6840.00
2019-06-27T04:52:11.211Z,7216.00
2019-06-27T04:53:11.216Z,7572.00
2019-06-27T04:54:11.183Z,7348.00
2019-06-27T04:55:11.266Z,6880.00
2019-06-27T04:56:11.173Z,6804.00
2019-06-27T04:57:11.154Z,6732.00
2019-06-27T04:58:11.143Z,7068.00
2019-06-27T04:59:11.152Z,6852.00
2019-06-27T05:00:11.125Z,6908.00
2019-06-27T05:01:11.138Z,6852.00
2019-06-27T05:02:11.098Z,7016.00
2019-06-27T05:03:11.097Z,7352.00
2019-06-27T05:04:11.094Z,7880.00
2019-06-27T05:05:11.076Z,8336.00
2019-06-27T05:06:11.066Z,7988.00
2019-06-27T05:07:11.044Z,7652.00
2019-06-27T05:08:14.357Z,7944.00
2019-06-27T05:09:11.035Z,8344.00
2019-06-27T05:10:11.039Z,8352.00
2019-06-27T05:11:11.007Z,8424.00
2019-06-27T05:12:11.017Z,8660.00
2019-06-27T05:13:10.995Z,8276.00
2019-06-27T05:14:10.965Z,8288.00
2019-06-27T05:15:10.968Z,8708.00
2019-06-27T05:16:10.955Z,9092.00
2019-06-27T05:17:10.955Z,8956.00
2019-06-27T05:18:10.930Z,8800.00
2019-06-27T05:19:10.915Z,9324.00
2019-06-27T05:20:10.909Z,9952.00
2019-06-27T05:21:10.907Z,9972.00
2019-06-27T05:22:10.895Z,9620.00
2019-06-27T05:23:10.866Z,9544.00
2019-06-27T05:24:10.855Z,9504.00
2019-06-27T05:25:10.845Z,9868.00
2019-06-27T05:26:10.845Z,9956.00
2019-06-27T05:27:10.870Z,9928.00
2019-06-27T05:28:10.821Z,9904.00
2019-06-27T05:29:10.820Z,9380.00
2019-06-27T05:30:10.867Z,8580.00
2019-06-27T05:31:10.776Z,8040.00
2019-06-27T05:32:10.780Z,8436.00
2019-06-27T05:33:10.768Z,9136.00
2019-06-27T05:34:10.770Z,9516.00
2019-06-27T05:35:10.753Z,9408.00
2019-06-27T05:36:10.729Z,9248.00
2019-06-27T05:37:10.727Z,8596.00
2019-06-27T05:38:10.707Z,7976.00
2019-06-27T05:39:10.707Z,7888.00
2019-06-27T05:40:10.679Z,7644.00
2019-06-27T05:41:10.676Z,7700.00
2019-06-27T05:42:10.668Z,7556.00
2019-06-27T05:43:10.659Z,7388.00
2019-06-27T05:44:10.682Z,7612.00
2019-06-27T05:45:10.627Z,6904.00
2019-06-27T05:46:10.632Z,6604.00
2019-06-27T05:47:10.612Z,6620.00
2019-06-27T05:48:10.640Z,6484.00
2019-06-27T05:49:10.653Z,6364.00
2019-06-27T05:50:10.659Z,6384.00
2019-06-27T05:51:10.572Z,6492.00
2019-06-27T05:52:10.564Z,6364.00
2019-06-27T05:53:10.582Z,6304.00
2019-06-27T05:54:10.541Z,6580.00
2019-06-27T05:55:10.543Z,6760.00
2019-06-27T05:56:10.511Z,6748.00
2019-06-27T05:57:10.503Z,6712.00
2019-06-27T05:58:10.493Z,6644.00
2019-06-27T05:59:10.480Z,6532.00
2019-06-27T06:00:26.646Z,6484.00
2019-06-27T06:01:11.465Z,6428.00
2019-06-27T06:02:10.475Z,6356.00
2019-06-27T06:03:10.460Z,6348.00
2019-06-27T06:04:10.446Z,6404.00
2019-06-27T06:05:10.429Z,6560.00
2019-06-27T06:06:10.402Z,6692.00
2019-06-27T06:07:10.403Z,6808.00
2019-06-27T06:08:10.384Z,6796.00
2019-06-27T06:09:10.383Z,6828.00
2019-06-27T06:10:10.361Z,6860.00
2019-06-27T06:11:10.377Z,6888.00
2019-06-27T06:12:10.344Z,6852.00
2019-06-27T06:13:10.323Z,6848.00
2019-06-27T06:14:10.330Z,6876.00
2019-06-27T06:15:10.309Z,6860.00
2019-06-27T06:16:10.316Z,6896.00
2019-06-27T06:17:10.286Z,7116.00
2019-06-27T06:18:10.262Z,7184.00
2019-06-27T06:19:10.263Z,7372.00
2019-06-27T06:20:10.265Z,7372.00
2019-06-27T06:21:10.270Z,7400.00
2019-06-27T06:22:10.223Z,8068.00
2019-06-27T06:23:10.223Z,8512.00
2019-06-27T06:24:10.203Z,8696.00
2019-06-27T06:25:10.203Z,8596.00
2019-06-27T06:26:10.196Z,7964.00
2019-06-27T06:27:10.174Z,7520.00
2019-06-27T06:28:10.157Z,7328.00
2019-06-27T06:29:10.167Z,7220.00
2019-06-27T06:30:10.164Z,7112.00
2019-06-27T06:31:10.135Z,6992.00
2019-06-27T06:32:10.134Z,6924.00
2019-06-27T06:33:10.109Z,6868.00
2019-06-27T06:34:10.103Z,6900.00
2019-06-27T06:35:10.085Z,6980.00
2019-06-27T06:36:10.085Z,7184.00
2019-06-27T06:37:10.065Z,7512.00
2019-06-27T06:38:10.069Z,7396.00
2019-06-27T06:39:10.045Z,7384.00
2019-06-27T06:40:10.034Z,7536.00
2019-06-27T06:41:10.015Z,7396.00
2019-06-27T06:42:10.024Z,7348.00
2019-06-27T06:43:10.007Z,7440.00
2019-06-27T06:44:09.986Z,7632.00
2019-06-27T06:45:09.978Z,7716.00
2019-06-27T06:46:09.961Z,8296.00
2019-06-27T06:47:10.003Z,8028.00
2019-06-27T06:48:09.946Z,7976.00
2019-06-27T06:49:09.949Z,7908.00
2019-06-27T06:50:10.027Z,8540.00
2019-06-27T06:51:09.908Z,8472.00
2019-06-27T06:52:09.896Z,8236.00
2019-06-27T06:53:09.901Z,8392.00
2019-06-27T06:54:09.890Z,8976.00
2019-06-27T06:55:09.867Z,9156.00
2019-06-27T06:56:09.867Z,8512.00
2019-06-27T06:57:09.847Z,8196.00
2019-06-27T06:58:09.848Z,8288.00
2019-06-27T06:59:09.821Z,8564.00
2019-06-27T07:00:09.821Z,9008.00
2019-06-27T07:01:09.807Z,9640.00
2019-06-27T07:02:09.798Z,19488.00
2019-06-27T07:03:09.771Z,38976.00
2019-06-27T07:04:09.778Z,40768.00
2019-06-27T07:05:09.757Z,40480.00
2019-06-27T07:06:09.746Z,40800.00
2019-06-27T07:07:13.055Z,42624.00
2019-06-27T07:08:09.722Z,43392.00
2019-06-27T07:09:09.725Z,42752.00
2019-06-27T07:10:09.723Z,42464.00
2019-06-27T07:11:09.690Z,43264.00
2019-06-27T07:12:09.687Z,43904.00
2019-06-27T07:13:09.683Z,43488.00
2019-06-27T07:14:09.662Z,45152.00
2019-06-27T07:15:09.660Z,45920.00
2019-06-27T07:16:09.642Z,46176.00
2019-06-27T07:17:09.620Z,45152.00
2019-06-27T07:18:09.621Z,46976.00
2019-06-27T07:19:09.623Z,49184.00
2019-06-27T07:20:09.586Z,49696.00
2019-06-27T07:21:09.648Z,48864.00
2019-06-27T07:22:09.575Z,50720.00
2019-06-27T07:23:09.552Z,53440.00
2019-06-27T07:24:09.556Z,53568.00
2019-06-27T07:25:09.543Z,54048.00
2019-06-27T07:26:09.526Z,53952.00
2019-06-27T07:27:09.524Z,53344.00
2019-06-27T07:28:09.528Z,53888.00
2019-06-27T07:29:09.485Z,56960.00
2019-06-27T07:30:09.630Z,56256.00
2019-06-27T07:31:17.852Z,54112.00
2019-06-27T07:32:10.463Z,54304.00
2019-06-27T07:33:10.427Z,54880.00
2019-06-27T07:34:09.447Z,52896.00
2019-06-27T07:35:09.449Z,56480.00
2019-06-27T07:36:09.414Z,59456.00
2019-06-27T07:37:09.405Z,58400.00
2019-06-27T07:38:09.394Z,61024.00
2019-06-27T07:39:09.383Z,61856.00
2019-06-27T07:40:09.402Z,62112.00
2019-06-27T07:41:09.425Z,61280.00
2019-06-27T07:42:09.357Z,57440.00
2019-06-27T07:43:09.342Z,57824.00
2019-06-27T07:44:09.338Z,61280.00
2019-06-27T07:45:09.319Z,63488.00
2019-06-27T07:46:24.036Z,63840.00
2019-06-27T07:47:10.289Z,63360.00
2019-06-27T07:48:09.311Z,64032.00
2019-06-27T07:49:09.279Z,65472.00
2019-06-27T07:50:09.476Z,66720.00
2019-06-27T07:51:09.296Z,67040.00
2019-06-27T07:52:09.240Z,66080.00
2019-06-27T07:53:09.229Z,66304.00
2019-06-27T07:54:09.222Z,67456.00
2019-06-27T07:55:09.210Z,68448.00
2019-06-27T07:56:09.191Z,66400.00
2019-06-27T07:57:09.201Z,66272.00
2019-06-27T07:58:09.181Z,69376.00
2019-06-27T07:59:09.216Z,69856.00
2019-06-27T08:00:09.186Z,69728.00
2019-06-27T08:01:09.150Z,70752.00
2019-06-27T08:02:09.146Z,71360.00
2019-06-27T08:03:09.123Z,72320.00
2019-06-27T08:04:09.112Z,74368.00
2019-06-27T08:05:09.200Z,69600.00
2019-06-27T08:06:09.107Z,73664.00
2019-06-27T08:07:09.107Z,71072.00
2019-06-27T08:08:09.078Z,74528.00
2019-06-27T08:09:09.067Z,74496.00
2019-06-27T08:10:09.067Z,77760.00
2019-06-27T08:11:09.058Z,75456.00
2019-06-27T08:12:09.038Z,75488.00
2019-06-27T08:13:09.026Z,74880.00
2019-06-27T08:14:09.008Z,77440.00
2019-06-27T08:15:08.999Z,75680.00
2019-06-27T08:16:08.987Z,74784.00
2019-06-27T08:17:09.003Z,76768.00
2019-06-27T08:18:08.957Z,80704.00
2019-06-27T08:19:08.960Z,81728.00
2019-06-27T08:20:08.957Z,79840.00
2019-06-27T08:21:08.933Z,81568.00
2019-06-27T08:22:08.939Z,85088.00
2019-06-27T08:23:08.918Z,90656.00
2019-06-27T08:24:08.921Z,97952.00
2019-06-27T08:25:08.890Z,80544.00
2019-06-27T08:26:08.934Z,52096.00
2019-06-27T08:27:08.880Z,38304.00
2019-06-27T08:28:08.900Z,52992.00
2019-06-27T08:29:08.854Z,81920.00
2019-06-27T08:30:09.065Z,100960.00
2019-06-27T08:31:08.844Z,94496.00
2019-06-27T08:32:08.825Z,87392.00
2019-06-27T08:33:08.802Z,85408.00
2019-06-27T08:34:08.802Z,84480.00
2019-06-27T08:35:08.799Z,86112.00
2019-06-27T08:36:08.776Z,86048.00
2019-06-27T08:37:08.783Z,85440.00
2019-06-27T08:38:08.759Z,86016.00
2019-06-27T08:39:08.760Z,87776.00
2019-06-27T08:40:15.782Z,87296.00
2019-06-27T08:41:08.722Z,89504.00
2019-06-27T08:42:08.704Z,91296.00
2019-06-27T08:43:08.728Z,96160.00
2019-06-27T08:44:08.685Z,94080.00
2019-06-27T08:45:08.685Z,67200.00
2019-06-27T08:46:08.799Z,53984.00
2019-06-27T08:47:08.656Z,83552.00
2019-06-27T08:48:08.665Z,106432.00
2019-06-27T08:49:08.647Z,98432.00
2019-06-27T08:50:08.647Z,93216.00
2019-06-27T08:51:08.616Z,98208.00
2019-06-27T08:52:08.610Z,94592.00
2019-06-27T08:53:08.607Z,88224.00
2019-06-27T08:54:08.608Z,91040.00
2019-06-27T08:55:08.593Z,96768.00
2019-06-27T08:56:08.584Z,98560.00
2019-06-27T08:57:08.576Z,98592.00
2019-06-27T08:58:08.559Z,95840.00
2019-06-27T08:59:08.567Z,94400.00
2019-06-27T09:00:08.531Z,96704.00
2019-06-27T09:01:08.549Z,99840.00
2019-06-27T09:02:09.553Z,97664.00
2019-06-27T09:03:08.490Z,94496.00
2019-06-27T09:04:08.481Z,95168.00
2019-06-27T09:05:08.470Z,95808.00
2019-06-27T09:06:08.462Z,97728.00
2019-06-27T09:07:08.455Z,96992.00
2019-06-27T09:08:08.466Z,97760.00
2019-06-27T09:09:08.436Z,100192.00
2019-06-27T09:10:08.441Z,97440.00
2019-06-27T09:11:08.413Z,96672.00
2019-06-27T09:12:08.407Z,97408.00
2019-06-27T09:13:08.409Z,98400.00
2019-06-27T09:14:08.397Z,99680.00
2019-06-27T09:15:08.385Z,100224.00
2019-06-27T09:16:08.379Z,100864.00
2019-06-27T09:17:08.346Z,101472.00
2019-06-27T09:18:08.335Z,99488.00
2019-06-27T09:19:08.326Z,101760.00
2019-06-27T09:20:08.480Z,102464.00
2019-06-27T09:21:08.326Z,102624.00
2019-06-27T09:22:08.310Z,102816.00
2019-06-27T09:23:08.278Z,102112.00
2019-06-27T09:24:08.281Z,101024.00
2019-06-27T09:25:08.321Z,101760.00
2019-06-27T09:26:08.282Z,101696.00
2019-06-27T09:27:08.258Z,101824.00
2019-06-27T09:28:08.241Z,100736.00
2019-06-27T09:29:08.232Z,100768.00
2019-06-27T09:30:08.223Z,99328.00
2019-06-27T09:31:08.236Z,100512.00
2019-06-27T09:32:20.967Z,102912.00
2019-06-27T09:33:09.199Z,102560.00
2019-06-27T09:34:08.170Z,99936.00
2019-06-27T09:35:08.161Z,100064.00
2019-06-27T09:36:08.163Z,98624.00
2019-06-27T09:37:08.155Z,101216.00
2019-06-27T09:38:08.142Z,101632.00
2019-06-27T09:39:08.177Z,99616.00
2019-06-27T09:40:08.124Z,103104.00
2019-06-27T09:41:08.093Z,101184.00
2019-06-27T09:42:08.085Z,99904.00
2019-06-27T09:43:08.084Z,99680.00
2019-06-27T09:44:08.066Z,98048.00
2019-06-27T09:45:08.065Z,99584.00
2019-06-27T09:46:08.055Z,102496.00
2019-06-27T09:47:08.045Z,104000.00
2019-06-27T09:48:08.047Z,104352.00
2019-06-27T09:49:08.092Z,105728.00
2019-06-27T09:50:08.041Z,107392.00
2019-06-27T09:51:07.996Z,108096.00
2019-06-27T09:52:07.996Z,108576.00
2019-06-27T09:53:08.004Z,109600.00
2019-06-27T09:54:07.990Z,111840.00
2019-06-27T09:55:07.947Z,110080.00
2019-06-27T09:56:07.948Z,109312.00
2019-06-27T09:57:07.938Z,110496.00
2019-06-27T09:58:07.942Z,109024.00
2019-06-27T09:59:07.944Z,108672.00
2019-06-27T10:00:07.901Z,107136.00
2019-06-27T10:01:07.913Z,110784.00
2019-06-27T10:02:07.884Z,112864.00
2019-06-27T10:03:07.884Z,110784.00
2019-06-27T10:04:07.892Z,107584.00
2019-06-27T10:05:07.862Z,109792.00
2019-06-27T10:06:07.865Z,108160.00
2019-06-27T10:07:07.851Z,107392.00
2019-06-27T10:08:07.825Z,110400.00
2019-06-27T10:09:07.833Z,110112.00
2019-06-27T10:10:07.854Z,114592.00
2019-06-27T10:11:07.806Z,114016.00
2019-06-27T10:12:07.793Z,110688.00
2019-06-27T10:13:07.796Z,114848.00
2019-06-27T10:14:07.779Z,113696.00
2019-06-27T10:15:07.828Z,112864.00
2019-06-27T10:16:07.776Z,114528.00
2019-06-27T10:17:07.749Z,112032.00
2019-06-27T10:18:07.724Z,112480.00
2019-06-27T10:19:07.739Z,110848.00
2019-06-27T10:20:07.716Z,114016.00
2019-06-27T10:21:07.786Z,118048.00
2019-06-27T10:22:07.687Z,112288.00
2019-06-27T10:23:07.667Z,110144.00
2019-06-27T10:24:07.672Z,112576.00
2019-06-27T10:25:07.667Z,115808.00
2019-06-27T10:26:07.648Z,119680.00
2019-06-27T10:27:07.642Z,113088.00
2019-06-27T10:28:07.650Z,109600.00
2019-06-27T10:29:07.610Z,110592.00
2019-06-27T10:30:07.633Z,112224.00
2019-06-27T10:31:07.590Z,109952.00
2019-06-27T10:32:07.591Z,109920.00
2019-06-27T10:33:07.580Z,108352.00
2019-06-27T10:34:07.570Z,113152.00
2019-06-27T10:35:07.564Z,117760.00
2019-06-27T10:36:07.579Z,111456.00
2019-06-27T10:37:07.565Z,101440.00
2019-06-27T10:38:07.538Z,109056.00
2019-06-27T10:39:07.514Z,110400.00
2019-06-27T10:40:07.512Z,108480.00
2019-06-27T10:41:07.505Z,105728.00
2019-06-27T10:42:07.503Z,109472.00
2019-06-27T10:43:07.490Z,109248.00
2019-06-27T10:44:07.497Z,107232.00
2019-06-27T10:45:07.464Z,110048.00
2019-06-27T10:46:07.489Z,112384.00
2019-06-27T10:47:07.449Z,112832.00
2019-06-27T10:48:07.426Z,113024.00
2019-06-27T10:49:07.440Z,114528.00
2019-06-27T10:50:07.419Z,116032.00
2019-06-27T10:51:07.410Z,114880.00
2019-06-27T10:52:07.398Z,117088.00
2019-06-27T10:53:07.380Z,113504.00
2019-06-27T10:54:07.377Z,115552.00
2019-06-27T10:55:07.366Z,116064.00
2019-06-27T10:56:07.359Z,110752.00
2019-06-27T10:57:07.359Z,111360.00
2019-06-27T10:58:07.342Z,111168.00
2019-06-27T10:59:07.333Z,112416.00
2019-06-27T11:00:07.331Z,116256.00
2019-06-27T11:01:07.316Z,117760.00
2019-06-27T11:02:07.310Z,113632.00
2019-06-27T11:03:15.767Z,111584.00
2019-06-27T11:04:08.291Z,112160.00
2019-06-27T11:05:07.265Z,113184.00
2019-06-27T11:06:07.264Z,114304.00
2019-06-27T11:07:07.270Z,121088.00
2019-06-27T11:08:07.232Z,116896.00
2019-06-27T11:09:07.224Z,110208.00
2019-06-27T11:10:07.226Z,102464.00
2019-06-27T11:11:07.212Z,107360.00
2019-06-27T11:12:07.206Z,104992.00
2019-06-27T11:13:07.214Z,112672.00
2019-06-27T11:14:07.189Z,118496.00
2019-06-27T11:15:07.179Z,116032.00
2019-06-27T11:16:07.166Z,119936.00
2019-06-27T11:17:07.146Z,119840.00
2019-06-27T11:18:07.146Z,120384.00
2019-06-27T11:19:07.127Z,118624.00
2019-06-27T11:20:07.117Z,119040.00
2019-06-27T11:21:07.128Z,116064.00
2019-06-27T11:22:07.107Z,117824.00
2019-06-27T11:23:07.118Z,117216.00
2019-06-27T11:24:07.092Z,115392.00
2019-06-27T11:25:07.071Z,111872.00
2019-06-27T11:26:09.363Z,108768.00
2019-06-27T11:27:07.059Z,108032.00
2019-06-27T11:28:10.012Z,107040.00
2019-06-27T11:29:07.082Z,103520.00
2019-06-27T11:30:07.073Z,108512.00
2019-06-27T11:31:07.029Z,107328.00
2019-06-27T11:32:07.013Z,109088.00
2019-06-27T11:33:07.013Z,113728.00
2019-06-27T11:34:06.991Z,112544.00
2019-06-27T11:35:06.985Z,114144.00
2019-06-27T11:36:06.960Z,116704.00
2019-06-27T11:37:06.956Z,118240.00
2019-06-27T11:38:06.951Z,118208.00
2019-06-27T11:39:06.944Z,119072.00
2019-06-27T11:40:06.924Z,115744.00
2019-06-27T11:41:06.914Z,114848.00
2019-06-27T11:42:06.917Z,113216.00
2019-06-27T11:43:06.885Z,110240.00
2019-06-27T11:44:06.953Z,112544.00
2019-06-27T11:45:06.873Z,107744.00
2019-06-27T11:46:08.840Z,104480.00
2019-06-27T11:47:06.856Z,107296.00
2019-06-27T11:48:06.859Z,103168.00
2019-06-27T11:49:06.869Z,104896.00
2019-06-27T11:50:06.849Z,108288.00
2019-06-27T11:51:06.826Z,111552.00
2019-06-27T11:52:06.809Z,112704.00
2019-06-27T11:53:06.797Z,114784.00
2019-06-27T11:54:06.791Z,115488.00
2019-06-27T11:55:06.789Z,117376.00
2019-06-27T11:56:06.772Z,119168.00
2019-06-27T11:57:06.759Z,115808.00
2019-06-27T11:58:06.759Z,115328.00
2019-06-27T11:59:06.731Z,115104.00
2019-06-27T12:00:06.730Z,114816.00
2019-06-27T12:01:06.720Z,116064.00
2019-06-27T12:02:06.728Z,117952.00
2019-06-27T12:03:06.691Z,117088.00
2019-06-27T12:04:06.704Z,117344.00
2019-06-27T12:05:06.693Z,112928.00
2019-06-27T12:06:06.672Z,114016.00
2019-06-27T12:07:06.652Z,115104.00
2019-06-27T12:08:06.660Z,113984.00